Terminal Aerodrome Forecast
Issued by NWS Austin/San Antonio, TX

Home | Current Version | Previous Version | Text Only | Print | Product List | Glossary On
Versions: 1 2 3 4 5 6 7 8 9 10 11 12 13 14 15 16 17 18 19 20 21 22 23 24 25 26 27 28
323
FTUS44 KEWX 291145 AAA
TAFSAT
TAF AMD
KSAT 291145Z 2912/3018 09003KT 6SM BR FEW005
     FM291230 17004KT P6SM BKN005
     FM291530 16012KT P6SM FEW040
     FM300700 17012KT P6SM BKN010
     FM301600 17012KT P6SM SCT035=

USA.gov is the U.S. government's official web portal to all federal, state and local government web resources and services.